Time;durP1;ratioP1;P1;durP2;ratioP2;P2;SDS_P1;SDS_P2;PMS_P1;PMS_P2;Temp;Humidity;BMP_temperature;BMP_pressure;BME280_temperature;BME280_humidity;BME280_pressure;Samples;Min_cycle;Max_cycle;Signal;HPM_P1;HPM_P2
2023/03/13 00:01:26;;;;;;;8.88;2.55;;;9.00;99.90;;;;;;5096072;28;20040;-66
2023/03/13 00:03:54;;;;;;;7.32;3.13;;;8.90;99.90;;;;;;5095946;28;20063;-66
2023/03/13 00:06:21;;;;;;;7.45;2.40;;;9.70;99.90;;;;;;5095636;28;20052;-66
2023/03/13 00:08:47;;;;;;;7.40;2.85;;;8.90;99.90;;;;;;5095630;28;20484;-66
2023/03/13 00:11:14;;;;;;;8.75;2.15;;;8.90;99.90;;;;;;5095781;28;20024;-65
2023/03/13 00:13:40;;;;;;;13.95;2.30;;;8.80;99.90;;;;;;5095831;28;20424;-65
2023/03/13 00:16:09;;;;;;;15.60;3.60;;;8.80;99.90;;;;;;5095762;28;20384;-65
2023/03/13 00:18:35;;;;;;;15.75;3.00;;;8.80;99.90;;;;;;5095499;28;20039;-65
2023/03/13 00:21:06;;;;;;;15.65;2.53;;;8.70;99.90;;;;;;5095733;28;20036;-66
2023/03/13 00:23:33;;;;;;;8.30;2.13;;;8.80;99.90;;;;;;5095555;28;20044;-65
2023/03/13 00:26:00;;;;;;;7.15;2.75;;;8.70;99.90;;;;;;5095305;28;20032;-66
2023/03/13 00:28:28;;;;;;;6.30;1.58;;;8.70;99.90;;;;;;5077096;28;20036;-65
2023/03/13 00:31:11;;;;;;;9.90;2.78;;;8.60;99.90;;;;;;5095142;28;20047;-65
2023/03/13 00:33:39;;;;;;;8.15;2.42;;;8.70;99.90;;;;;;5095155;28;20048;-66
2023/03/13 00:36:07;;;;;;;11.77;2.05;;;8.70;99.90;;;;;;5095132;28;20094;-66
2023/03/13 00:38:33;;;;;;;9.75;2.65;;;8.60;99.90;;;;;;5095237;28;20236;-66
2023/03/13 00:41:14;;;;;;;5.28;1.85;;;9.10;99.90;;;;;;5095306;28;20456;-66
2023/03/13 00:43:41;;;;;;;10.55;1.85;;;8.70;99.90;;;;;;5095205;28;20403;-66
2023/03/13 00:46:08;;;;;;;5.57;1.13;;;9.00;99.90;;;;;;5095172;28;20036;-65
2023/03/13 00:48:34;;;;;;;5.88;2.42;;;8.70;99.90;;;;;;5094870;28;20032;-65
2023/03/13 00:51:00;;;;;;;10.23;2.60;;;8.60;99.90;;;;;;5094320;28;20036;-66
2023/03/13 00:53:26;;;;;;;10.30;2.05;;;8.70;99.90;;;;;;5094755;28;20110;-65
2023/03/13 00:55:56;;;;;;;12.40;2.30;;;8.60;99.90;;;;;;5094748;28;20039;-66
2023/03/13 00:58:23;;;;;;;10.40;1.77;;;8.90;99.90;;;;;;5094608;28;20081;-66
2023/03/13 01:00:49;;;;;;;9.48;2.75;;;8.70;99.90;;;;;;5094587;28;20081;-66
2023/03/13 01:03:15;;;;;;;15.52;1.63;;;8.70;99.90;;;;;;5094728;28;20032;-66
2023/03/13 01:05:41;;;;;;;9.77;2.47;;;8.60;99.90;;;;;;5094566;28;20066;-66
2023/03/13 01:08:07;;;;;;;9.55;2.30;;;8.50;99.90;;;;;;5094757;28;20473;-65
2023/03/13 01:10:33;;;;;;;5.68;2.10;;;8.60;99.90;;;;;;5094440;28;20040;-66
2023/03/13 01:12:58;;;;;;;4.78;1.88;;;8.60;99.90;;;;;;5076478;28;20181;-66
2023/03/13 01:15:25;;;;;;;6.57;2.53;;;;;;;;;;5094627;28;20090;-65
2023/03/13 01:17:50;;;;;;;9.38;2.30;;;8.50;99.90;;;;;;5094308;28;20047;-65
2023/03/13 01:20:16;;;;;;;9.68;2.45;;;8.70;99.90;;;;;;5094263;28;20040;-66
2023/03/13 01:22:42;;;;;;;8.60;1.92;;;8.50;99.90;;;;;;5094468;28;20053;-66
2023/03/13 01:25:08;;;;;;;6.93;2.10;;;8.50;99.90;;;;;;5094388;28;20040;-66
2023/03/13 01:27:33;;;;;;;7.85;2.42;;;8.30;99.90;;;;;;5094387;28;20040;-65
2023/03/13 01:29:59;;;;;;;10.02;2.50;;;8.50;99.90;;;;;;5094334;28;20495;-66
2023/03/13 01:32:24;;;;;;;8.98;2.65;;;9.00;99.90;;;;;;5094265;28;20036;-65
2023/03/13 01:34:50;;;;;;;7.25;1.70;;;8.50;99.90;;;;;;5094253;28;20050;-66
2023/03/13 01:37:16;;;;;;;13.57;2.17;;;8.50;99.90;;;;;;5093908;28;20507;-66
2023/03/13 01:39:41;;;;;;;10.00;1.88;;;8.50;99.90;;;;;;5094153;28;20083;-65
2023/03/13 01:42:07;;;;;;;11.70;2.00;;;8.50;99.90;;;;;;5094109;28;20061;-66
2023/03/13 01:44:56;;;;;;;16.90;2.53;;;8.50;99.90;;;;;;5093758;28;20040;-69
2023/03/13 01:47:22;;;;;;;14.10;1.90;;;8.50;99.90;;;;;;5093768;28;20031;-65
2023/03/13 01:49:51;;;;;;;8.88;1.83;;;8.50;99.90;;;;;;5093997;28;20039;-66
2023/03/13 01:52:24;;;;;;;5.93;2.03;;;8.50;99.90;;;;;;5093889;28;20035;-66
2023/03/13 01:55:04;;;;;;;5.50;1.42;;;8.50;99.90;;;;;;5093943;28;20432;-68
2023/03/13 01:57:38;;;;;;;4.43;1.63;;;8.50;99.90;;;;;;5093876;28;20048;-65
2023/03/13 02:00:09;;;;;;;7.60;2.15;;;8.60;99.90;;;;;;5093750;28;20410;-65
2023/03/13 02:02:40;;;;;;;5.43;1.48;;;8.50;99.90;;;;;;5093729;28;20433;-65
2023/03/13 02:05:06;;;;;;;5.43;1.63;;;8.60;99.90;;;;;;5093440;28;20471;-65
2023/03/13 02:07:44;;;;;;;4.20;1.63;;;8.60;99.90;;;;;;5093681;28;20943;-65
2023/03/13 02:10:12;;;;;;;5.90;2.35;;;8.60;99.90;;;;;;5093317;28;20493;-66
2023/03/13 02:12:39;;;;;;;4.60;2.00;;;8.50;99.90;;;;;;5093674;28;20065;-65
2023/03/13 02:15:10;;;;;;;7.07;2.55;;;8.60;99.90;;;;;;5093460;28;20040;-65
2023/03/13 02:17:37;;;;;;;8.20;2.92;;;;;;;;;;5093602;28;20036;-66
2023/03/13 02:20:04;;;;;;;8.73;2.65;;;8.60;99.90;;;;;;5093551;28;20085;-66
2023/03/13 02:22:46;;;;;;;7.63;2.00;;;8.70;99.90;;;;;;5093543;28;20122;-66
2023/03/13 02:25:24;;;;;;;17.77;3.25;;;9.40;99.90;;;;;;5093285;28;20042;-66
2023/03/13 02:28:08;;;;;;;8.93;1.75;;;8.70;99.90;;;;;;5093440;28;20042;-65
2023/03/13 02:30:34;;;;;;;4.82;2.28;;;8.60;99.90;;;;;;5075156;28;20046;-65
2023/03/13 02:33:01;;;;;;;8.65;2.15;;;8.60;99.90;;;;;;5092934;28;20111;-65
2023/03/13 02:35:28;;;;;;;3.67;1.55;;;8.50;99.90;;;;;;5074888;28;20044;-65
2023/03/13 02:37:58;;;;;;;9.95;2.00;;;8.60;99.90;;;;;;5093346;28;20040;-65
2023/03/13 02:40:31;;;;;;;3.97;2.05;;;8.60;99.90;;;;;;5093190;28;20036;-65
2023/03/13 02:43:01;;;;;;;6.38;1.80;;;8.60;99.90;;;;;;5093240;28;20119;-66
2023/03/13 02:45:26;;;;;;;7.97;2.00;;;8.70;99.90;;;;;;5093135;28;20036;-65
2023/03/13 02:47:52;;;;;;;3.47;1.42;;;8.60;99.90;;;;;;5093158;28;20047;-66
2023/03/13 02:50:18;;;;;;;4.15;1.83;;;8.70;99.90;;;;;;5092772;28;20034;-65
2023/03/13 02:52:47;;;;;;;3.80;1.77;;;8.90;99.90;;;;;;5093071;28;20032;-66
2023/03/13 02:55:29;;;;;;;4.07;1.10;;;8.70;99.90;;;;;;5093058;28;20505;-66
2023/03/13 02:57:55;;;;;;;1.85;0.93;;;8.70;99.90;;;;;;5093008;28;20066;-65
2023/03/13 03:00:25;;;;;;;7.97;1.90;;;8.70;99.90;;;;;;5101287;22;20592;-75
2023/03/13 03:02:54;;;;;;;3.28;1.30;;;8.80;99.90;;;;;;5056530;28;20052;-76
2023/03/13 03:05:21;;;;;;;3.92;1.58;;;8.80;99.90;;;;;;5057989;28;20043;-76
2023/03/13 03:07:47;;;;;;;5.47;1.50;;;8.50;99.90;;;;;;5058250;28;20051;-76
2023/03/13 03:10:13;;;;;;;1.27;0.47;;;8.80;99.90;;;;;;5074833;28;20047;-76
2023/03/13 03:12:39;;;;;;;2.72;1.25;;;8.80;99.90;;;;;;5074838;28;20043;-76
2023/03/13 03:15:05;;;;;;;1.77;1.25;;;8.80;99.90;;;;;;5060382;28;20036;-76
2023/03/13 03:17:30;;;;;;;3.25;1.35;;;8.90;99.90;;;;;;5078350;28;20059;-76
2023/03/13 03:19:56;;;;;;;1.77;1.30;;;8.50;99.90;;;;;;5078822;28;20395;-75
2023/03/13 03:22:22;;;;;;;3.75;0.50;;;8.80;99.90;;;;;;5078412;28;20039;-75
2023/03/13 03:24:47;;;;;;;1.85;0.95;;;8.70;99.90;;;;;;5061660;28;20093;-75
2023/03/13 03:27:13;;;;;;;1.75;1.10;;;8.80;99.90;;;;;;5078347;28;20452;-76
2023/03/13 03:29:38;;;;;;;4.07;1.15;;;8.90;99.90;;;;;;5078293;28;20040;-76
2023/03/13 03:32:04;;;;;;;1.58;0.88;;;8.90;99.90;;;;;;5061576;28;20032;-76
2023/03/13 03:34:30;;;;;;;7.07;1.30;;;;;;;;;;5061775;28;20439;-76
2023/03/13 03:36:56;;;;;;;1.85;0.93;;;8.90;99.90;;;;;;5078213;28;20443;-76
2023/03/13 03:39:21;;;;;;;2.03;0.98;;;9.00;99.90;;;;;;5078342;28;20036;-75
2023/03/13 03:41:47;;;;;;;1.17;0.82;;;8.90;99.90;;;;;;5078302;28;20043;-76
2023/03/13 03:44:12;;;;;;;3.88;0.63;;;9.00;99.90;;;;;;5077818;28;20032;-75
2023/03/13 03:46:38;;;;;;;1.13;0.85;;;9.10;99.90;;;;;;5061538;28;20401;-75
2023/03/13 03:49:04;;;;;;;0.77;0.65;;;9.10;99.90;;;;;;5077854;28;20035;-75
2023/03/13 03:51:29;;;;;;;4.00;1.65;;;9.10;99.90;;;;;;5077868;28;20089;-75
2023/03/13 03:53:55;;;;;;;1.23;0.70;;;9.10;99.90;;;;;;5061196;28;20043;-75
2023/03/13 03:56:20;;;;;;;3.65;1.45;;;10.30;99.90;;;;;;5077687;28;20495;-75
2023/03/13 03:58:46;;;;;;;0.85;0.68;;;9.20;99.90;;;;;;5061089;28;20050;-75
2023/03/13 04:01:11;;;;;;;7.40;1.13;;;9.30;99.90;;;;;;5077523;28;20044;-75
2023/03/13 04:03:37;;;;;;;1.40;0.93;;;9.30;99.90;;;;;;5061122;28;20036;-75
2023/03/13 04:06:03;;;;;;;2.50;1.52;;;9.30;99.90;;;;;;5077571;28;20040;-75
2023/03/13 04:08:28;;;;;;;3.17;1.73;;;9.40;99.90;;;;;;5077630;28;20044;-75
2023/03/13 04:10:54;;;;;;;2.45;1.70;;;9.40;99.90;;;;;;5077566;28;20043;-75
2023/03/13 04:13:20;;;;;;;1.48;1.00;;;9.40;99.90;;;;;;5060821;28;20511;-76
2023/03/13 04:15:46;;;;;;;0.70;0.70;;;10.90;99.90;;;;;;5077466;28;20032;-76
2023/03/13 04:18:11;;;;;;;1.48;0.93;;;9.50;99.90;;;;;;5077346;28;20441;-75
2023/03/13 04:20:37;;;;;;;1.17;0.82;;;9.60;99.90;;;;;;5060581;28;20081;-75
2023/03/13 04:23:03;;;;;;;1.38;0.98;;;9.60;99.90;;;;;;5077244;28;20089;-76
2023/03/13 04:25:28;;;;;;;0.80;0.80;;;11.20;99.90;;;;;;5076231;28;20047;-75
2023/03/13 04:27:54;;;;;;;1.52;1.02;;;9.70;99.90;;;;;;5060600;28;20491;-75
2023/03/13 04:30:19;;;;;;;1.48;0.73;;;10.90;99.90;;;;;;5077139;28;20044;-75
2023/03/13 04:32:45;;;;;;;2.55;1.25;;;10.00;99.90;;;;;;5077161;28;20044;-75
2023/03/13 04:35:11;;;;;;;2.03;0.90;;;9.80;99.90;;;;;;5076890;28;20043;-76
2023/03/13 04:37:36;;;;;;;2.60;1.58;;;9.90;99.90;;;;;;5077049;28;20528;-75
2023/03/13 04:40:03;;;;;;;1.63;0.98;;;9.80;99.90;;;;;;5060328;28;20066;-75
2023/03/13 04:42:28;;;;;;;4.78;2.03;;;10.00;99.90;;;;;;5060277;28;20039;-75
2023/03/13 04:44:54;;;;;;;0.95;0.80;;;10.00;99.90;;;;;;5076852;28;20044;-75
2023/03/13 04:47:19;;;;;;;1.75;1.23;;;10.10;99.90;;;;;;5076865;28;20071;-75
2023/03/13 04:49:45;;;;;;;2.03;1.42;;;10.10;99.90;;;;;;5060120;28;20032;-75
2023/03/13 04:52:11;;;;;;;3.53;1.58;;;10.20;99.90;;;;;;5076641;28;20040;-75
2023/03/13 04:54:37;;;;;;;1.88;0.95;;;10.60;99.90;;;;;;5060026;28;20040;-75
2023/03/13 04:57:03;;;;;;;4.90;1.55;;;10.30;99.90;;;;;;5076621;28;20563;-75
2023/03/13 04:59:28;;;;;;;1.85;1.33;;;10.30;99.90;;;;;;5059967;28;20036;-75
2023/03/13 05:01:54;;;;;;;2.53;1.67;;;11.30;99.90;;;;;;5076345;28;20414;-75
2023/03/13 05:04:20;;;;;;;2.50;1.50;;;10.30;99.90;;;;;;5076517;28;20511;-75
2023/03/13 05:06:45;;;;;;;2.15;1.48;;;10.40;99.90;;;;;;5076510;28;20028;-76
2023/03/13 05:09:11;;;;;;;3.28;1.88;;;10.40;99.90;;;;;;5060020;28;20506;-76
2023/03/13 05:11:36;;;;;;;1.58;1.17;;;10.40;99.90;;;;;;5076636;28;20036;-75
2023/03/13 05:14:03;;;;;;;4.10;1.85;;;10.50;99.90;;;;;;5059705;28;20051;-75
2023/03/13 05:16:28;;;;;;;3.47;1.83;;;11.30;99.90;;;;;;5076238;28;20040;-76
2023/03/13 05:18:54;;;;;;;2.97;1.88;;;10.60;99.90;;;;;;5059579;28;20051;-76
2023/03/13 05:21:20;;;;;;;3.05;1.02;;;12.00;99.90;;;;;;5059518;28;20521;-76
2023/03/13 05:23:45;;;;;;;2.03;1.70;;;10.80;99.90;;;;;;5076059;28;20044;-76
2023/03/13 05:26:11;;;;;;;5.28;2.40;;;10.90;99.90;;;;;;5059329;28;20036;-76
2023/03/13 05:28:36;;;;;;;3.15;1.88;;;10.90;99.90;;;;;;5075971;28;20152;-76
2023/03/13 05:31:02;;;;;;;4.47;3.00;;;10.90;99.90;;;;;;5076273;28;20036;-76
2023/03/13 05:33:27;;;;;;;4.00;2.13;;;11.00;99.90;;;;;;5076148;28;20046;-76
2023/03/13 05:35:53;;;;;;;2.97;1.65;;;10.90;99.90;;;;;;5075889;28;20131;-75
2023/03/13 05:38:18;;;;;;;3.40;2.30;;;11.30;99.90;;;;;;5075794;28;20470;-75
2023/03/13 05:40:44;;;;;;;4.45;2.53;;;11.00;99.90;;;;;;5059334;28;20032;-75
2023/03/13 05:43:10;;;;;;;2.63;2.03;;;11.10;99.90;;;;;;5075913;28;20044;-76
2023/03/13 05:45:35;;;;;;;4.38;1.73;;;10.90;99.90;;;;;;5075681;28;20033;-76
2023/03/13 05:48:01;;;;;;;4.93;2.40;;;12.10;99.90;;;;;;5075890;28;20032;-76
2023/03/13 05:50:27;;;;;;;3.63;2.10;;;11.10;99.90;;;;;;5058855;28;20063;-76
2023/03/13 05:52:52;;;;;;;3.90;1.92;;;11.20;99.90;;;;;;5075748;28;20047;-76
2023/03/13 05:55:18;;;;;;;4.65;1.90;;;11.20;99.90;;;;;;5058847;28;20125;-76
2023/03/13 05:57:47;;;;;;;1.88;1.27;;;11.20;99.90;;;;;;5075683;28;20032;-76
2023/03/13 06:00:15;;;;;;;4.22;2.00;;;11.00;99.90;;;;;;5075268;28;20047;-76
2023/03/13 06:02:42;;;;;;;1.88;1.05;;;11.20;99.90;;;;;;5075684;28;20051;-76
2023/03/13 06:05:08;;;;;;;3.03;2.03;;;11.00;99.90;;;;;;5075247;28;20036;-76
2023/03/13 06:07:34;;;;;;;3.63;1.45;;;11.70;99.90;;;;;;5058908;28;20043;-76
2023/03/13 06:09:59;;;;;;;2.72;1.98;;;11.30;99.90;;;;;;5058709;28;20057;-76
2023/03/13 06:12:25;;;;;;;2.85;1.40;;;11.00;99.90;;;;;;5058788;28;20494;-80
2023/03/13 06:14:50;;;;;;;5.25;2.10;;;11.00;99.90;;;;;;5075480;28;20079;-76
2023/03/13 06:17:16;;;;;;;5.70;2.30;;;11.30;99.90;;;;;;5075383;28;20040;-75
2023/03/13 06:19:42;;;;;;;2.33;1.55;;;11.30;99.90;;;;;;5075090;28;20040;-76
2023/03/13 06:22:07;;;;;;;1.60;1.40;;;11.10;99.90;;;;;;5058328;28;20479;-77
2023/03/13 06:24:33;;;;;;;2.03;1.63;;;11.40;99.90;;;;;;5075232;28;20563;-77
2023/03/13 06:26:59;;;;;;;3.90;2.08;;;;;;;;;;5058205;28;20036;-77
2023/03/13 06:29:25;;;;;;;4.18;2.03;;;11.40;99.90;;;;;;5074995;28;20529;-77
2023/03/13 06:31:50;;;;;;;6.45;2.13;;;11.40;99.90;;;;;;5074970;28;20031;-77
2023/03/13 06:34:17;;;;;;;3.10;1.75;;;11.40;99.90;;;;;;5058098;28;20119;-78
2023/03/13 06:36:43;;;;;;;2.92;1.95;;;11.50;99.90;;;;;;5074873;28;20036;-77
2023/03/13 06:39:09;;;;;;;2.47;1.75;;;11.60;99.90;;;;;;5074953;28;20040;-77
2023/03/13 06:41:35;;;;;;;3.67;2.50;;;12.40;99.90;;;;;;5074814;28;20119;-78
2023/03/13 06:44:01;;;;;;;4.97;2.03;;;11.50;99.90;;;;;;5074726;28;20127;-81
2023/03/13 06:46:27;;;;;;;3.22;2.20;;;11.50;99.90;;;;;;5058121;28;20036;-76
2023/03/13 06:48:52;;;;;;;5.47;2.60;;;11.50;99.90;;;;;;5074157;28;20162;-75
2023/03/13 06:51:20;;;;;;;4.13;2.42;;;12.20;99.90;;;;;;5074730;28;20068;-76
2023/03/13 06:53:47;;;;;;;5.88;2.22;;;11.40;99.90;;;;;;5074762;28;20050;-75
2023/03/13 06:56:13;;;;;;;7.38;2.92;;;11.60;99.90;;;;;;5058008;28;20040;-75
2023/03/13 06:58:38;;;;;;;6.13;2.60;;;11.50;99.90;;;;;;5074735;28;20546;-75
2023/03/13 07:01:09;;;;;;;4.72;2.65;;;11.50;99.90;;;;;;5074881;28;20495;-76
2023/03/13 07:03:35;;;;;;;4.75;2.60;;;11.50;99.90;;;;;;5074502;28;20051;-75
2023/03/13 07:06:02;;;;;;;4.25;2.55;;;11.60;99.90;;;;;;5074570;28;20036;-80
2023/03/13 07:08:28;;;;;;;5.65;1.98;;;11.60;99.90;;;;;;5057871;28;20406;-77
2023/03/13 07:10:58;;;;;;;5.85;2.08;;;11.70;99.90;;;;;;5074524;28;20033;-81
2023/03/13 07:13:24;;;;;;;2.57;1.77;;;11.70;99.90;;;;;;5057972;28;20072;-79
2023/03/13 07:15:50;;;;;;;6.78;2.70;;;11.70;99.90;;;;;;5057808;28;20808;-71
2023/03/13 07:18:16;;;;;;;5.43;2.63;;;11.70;99.90;;;;;;5074578;28;20483;-76
2023/03/13 07:20:42;;;;;;;3.33;2.10;;;12.60;99.90;;;;;;5074487;28;20399;-76
2023/03/13 07:23:08;;;;;;;4.03;1.90;;;11.70;99.90;;;;;;5074708;28;20410;-73
2023/03/13 07:25:33;;;;;;;7.93;2.50;;;11.70;99.90;;;;;;5074360;28;20036;-76
2023/03/13 07:28:00;;;;;;;7.78;2.83;;;11.70;99.90;;;;;;5074432;28;20047;-78
2023/03/13 07:30:26;;;;;;;2.25;1.83;;;11.60;99.90;;;;;;5074308;28;20119;-76
2023/03/13 07:32:52;;;;;;;4.07;2.28;;;11.60;99.90;;;;;;5074358;28;20036;-76
2023/03/13 07:35:17;;;;;;;1.88;1.25;;;11.80;99.90;;;;;;5074330;28;20051;-77
2023/03/13 07:37:43;;;;;;;3.28;1.73;;;12.40;99.90;;;;;;5074394;28;20036;-77
2023/03/13 07:40:10;;;;;;;4.07;2.20;;;11.60;99.90;;;;;;5074260;28;20051;-76
2023/03/13 07:42:39;;;;;;;4.10;2.33;;;11.70;99.90;;;;;;5057616;28;20047;-80
2023/03/13 07:45:05;;;;;;;6.50;2.95;;;11.70;99.90;;;;;;5074418;28;20066;-75
2023/03/13 07:47:33;;;;;;;6.00;2.08;;;11.70;99.90;;;;;;5074206;28;20071;-75
2023/03/13 07:49:59;;;;;;;3.95;2.30;;;11.70;99.90;;;;;;5074179;28;20549;-75
2023/03/13 07:52:26;;;;;;;3.15;1.73;;;11.80;99.90;;;;;;5074163;28;20040;-76
2023/03/13 07:54:52;;;;;;;2.63;1.40;;;11.70;99.90;;;;;;5074039;28;20048;-76
2023/03/13 07:57:18;;;;;;;6.85;1.88;;;13.40;99.90;;;;;;5057435;28;20407;-76
2023/03/13 07:59:44;;;;;;;2.97;1.67;;;11.60;99.90;;;;;;5074194;28;20127;-75
2023/03/13 08:02:12;;;;;;;4.38;1.85;;;12.20;99.90;;;;;;5060817;28;20047;-75
2023/03/13 08:04:40;;;;;;;4.95;1.85;;;11.70;99.90;;;;;;5077516;28;20040;-75
2023/03/13 08:07:09;;;;;;;2.03;1.35;;;11.70;99.90;;;;;;5096026;28;20133;-75
2023/03/13 08:09:35;;;;;;;3.33;1.42;;;11.70;99.90;;;;;;5077510;28;20044;-75
2023/03/13 08:12:01;;;;;;;3.53;1.13;;;11.70;99.90;;;;;;5077513;28;20040;-75
2023/03/13 08:14:26;;;;;;;5.13;1.05;;;11.70;99.90;;;;;;5077795;28;20148;-75
2023/03/13 08:16:52;;;;;;;1.85;1.33;;;11.70;99.90;;;;;;5077397;28;20058;-75
2023/03/13 08:19:18;;;;;;;2.40;1.45;;;11.80;99.90;;;;;;5077287;28;20426;-76
2023/03/13 08:21:43;;;;;;;0.60;0.60;;;11.70;99.90;;;;;;5077321;28;20048;-76
2023/03/13 08:24:11;;;;;;;1.58;1.02;;;11.80;99.90;;;;;;5060540;28;20050;-76
2023/03/13 08:26:39;;;;;;;4.25;1.63;;;12.30;99.90;;;;;;5077470;28;20109;-75
2023/03/13 08:29:11;;;;;;;1.00;0.80;;;11.70;99.90;;;;;;5077230;28;20119;-76
2023/03/13 08:31:42;;;;;;;2.25;1.00;;;12.90;99.90;;;;;;5077135;28;20040;-75
2023/03/13 08:34:08;;;;;;;2.10;0.90;;;11.70;99.90;;;;;;5077063;28;20040;-76
2023/03/13 08:36:35;;;;;;;1.65;1.15;;;11.70;99.90;;;;;;5076994;28;20371;-75
2023/03/13 08:39:04;;;;;;;1.88;1.23;;;11.70;99.90;;;;;;5077242;28;20048;-75
2023/03/13 08:41:34;;;;;;;1.58;1.20;;;11.80;99.90;;;;;;5077355;28;20101;-75
2023/03/13 08:44:01;;;;;;;2.23;1.17;;;11.80;99.90;;;;;;5076853;28;20052;-76
2023/03/13 08:46:29;;;;;;;0.85;0.63;;;12.40;99.90;;;;;;5076856;28;20054;-75
2023/03/13 08:48:55;;;;;;;1.45;0.80;;;11.80;99.90;;;;;;5077082;28;20036;-75
2023/03/13 08:51:23;;;;;;;1.83;1.33;;;11.90;99.90;;;;;;5076683;28;20047;-75
2023/03/13 08:53:50;;;;;;;2.80;0.85;;;11.90;99.90;;;;;;5076670;28;20122;-76
2023/03/13 08:56:17;;;;;;;3.20;1.13;;;11.90;99.90;;;;;;5076663;28;20043;-76
2023/03/13 08:58:43;;;;;;;5.80;1.40;;;11.90;99.90;;;;;;5076896;28;20118;-75
2023/03/13 09:01:14;;;;;;;3.42;1.73;;;11.90;99.90;;;;;;5076650;28;20410;-76
2023/03/13 09:03:40;;;;;;;1.63;0.68;;;13.50;99.90;;;;;;5076536;28;20055;-75
2023/03/13 09:06:07;;;;;;;2.05;1.42;;;11.90;99.90;;;;;;5060005;28;20547;-75
2023/03/13 09:08:33;;;;;;;2.15;1.30;;;12.00;99.90;;;;;;5076362;28;20169;-76
2023/03/13 09:11:02;;;;;;;1.52;1.13;;;12.10;99.90;;;;;;5076427;28;20040;-76
2023/03/13 09:13:30;;;;;;;2.22;1.33;;;12.30;99.90;;;;;;5058952;28;20047;-76
2023/03/13 09:16:01;;;;;;;6.30;1.67;;;12.30;99.90;;;;;;5076307;28;20076;-75
2023/03/13 09:18:27;;;;;;;3.92;1.25;;;12.40;99.90;;;;;;5076523;28;20066;-76
2023/03/13 09:20:52;;;;;;;5.43;1.88;;;12.80;99.90;;;;;;5076203;28;20519;-76
2023/03/13 09:23:19;;;;;;;1.45;0.95;;;12.50;99.90;;;;;;5076088;28;20028;-76
2023/03/13 09:25:44;;;;;;;5.00;1.27;;;12.50;99.90;;;;;;5076388;28;20596;-76
2023/03/13 09:28:11;;;;;;;2.08;1.42;;;12.40;99.90;;;;;;5076573;28;20117;-79
2023/03/13 09:30:37;;;;;;;5.28;1.40;;;12.50;99.90;;;;;;5078455;28;20479;-75
2023/03/13 09:33:03;;;;;;;3.95;2.17;;;12.40;99.90;;;;;;5076252;28;20036;-76
2023/03/13 09:35:28;;;;;;;3.45;1.35;;;12.40;99.90;;;;;;5076076;28;20048;-76
2023/03/13 09:37:54;;;;;;;1.50;1.00;;;12.40;99.90;;;;;;5075841;28;20048;-76
2023/03/13 09:40:24;;;;;;;2.15;1.27;;;12.50;99.90;;;;;;5059794;28;20040;-76
2023/03/13 09:42:54;;;;;;;1.83;1.15;;;12.50;99.90;;;;;;5075781;28;20106;-76
2023/03/13 09:45:35;;;;;;;1.80;1.27;;;12.50;99.90;;;;;;5075568;28;20044;-76
2023/03/13 09:48:21;;;;;;;1.02;0.93;;;12.50;99.90;;;;;;5075660;28;20036;-76
2023/03/13 09:51:13;;;;;;;1.60;1.00;;;12.90;99.90;;;;;;5075868;28;20036;-76
2023/03/13 09:54:00;;;;;;;3.67;1.38;;;12.50;99.90;;;;;;5058088;28;20054;-77
2023/03/13 09:56:31;;;;;;;2.55;1.25;;;13.80;99.90;;;;;;5058799;28;20382;-76
2023/03/13 09:59:18;;;;;;;3.80;1.27;;;12.70;99.90;;;;;;5075344;28;20079;-77
2023/03/13 10:01:45;;;;;;;8.88;1.10;;;12.70;99.90;;;;;;5075364;28;20056;-76
2023/03/13 10:04:27;;;;;;;3.85;1.13;;;12.70;99.90;;;;;;5058769;28;20069;-76
2023/03/13 10:06:53;;;;;;;2.60;1.42;;;12.80;99.90;;;;;;5075287;28;20047;-77
2023/03/13 10:09:30;;;;;;;2.15;1.02;;;13.00;99.90;;;;;;5058961;28;20036;-77
2023/03/13 10:12:02;;;;;;;2.95;1.40;;;13.10;99.90;;;;;;5075206;28;20177;-77
2023/03/13 10:14:46;;;;;;;5.07;1.55;;;13.10;99.90;;;;;;5075161;28;20054;-77
2023/03/13 10:17:38;;;;;;;3.63;1.77;;;13.30;99.90;;;;;;5058541;28;20403;-78
2023/03/13 10:20:32;;;;;;;2.40;1.10;;;13.30;99.90;;;;;;5072237;28;20083;-77
2023/03/13 10:23:33;;;;;;;2.72;1.50;;;13.40;99.90;;;;;;5058082;28;20455;-77
2023/03/13 10:25:59;;;;;;;1.55;0.90;;;13.40;99.90;;;;;;5058134;28;20108;-77
2023/03/13 10:28:24;;;;;;;1.77;1.00;;;13.50;99.90;;;;;;5074903;28;20032;-77
2023/03/13 10:31:00;;;;;;;1.67;1.02;;;13.50;99.90;;;;;;5058102;28;20398;-77
2023/03/13 10:33:28;;;;;;;2.55;1.17;;;13.60;99.90;;;;;;5075104;28;20075;-77
2023/03/13 10:36:09;;;;;;;1.90;0.77;;;13.60;99.90;;;;;;5074773;28;20039;-77
2023/03/13 10:38:47;;;;;;;4.10;0.85;;;13.70;99.90;;;;;;5074932;28;20398;-77
2023/03/13 10:41:27;;;;;;;0.80;0.50;;;13.70;99.90;;;;;;5058097;28;20390;-77
2023/03/13 10:43:58;;;;;;;3.70;0.82;;;13.80;99.90;;;;;;5058010;28;20051;-77
2023/03/13 10:46:32;;;;;;;3.00;1.52;;;13.80;99.90;;;;;;5075220;28;20047;-78
2023/03/13 10:49:01;;;;;;;3.10;1.27;;;13.90;99.90;;;;;;5058277;28;20099;-77
2023/03/13 10:51:38;;;;;;;4.97;1.02;;;13.90;99.90;;;;;;5075105;28;20043;-78
2023/03/13 10:54:36;;;;;;;2.10;0.90;;;14.10;99.90;;;;;;5074786;28;20044;-78
2023/03/13 10:57:17;;;;;;;0.98;0.55;;;14.10;99.90;;;;;;5074775;28;20048;-78
2023/03/13 10:59:48;;;;;;;3.47;0.75;;;14.10;99.90;;;;;;5057962;28;20040;-78
2023/03/13 11:02:25;;;;;;;6.30;1.20;;;14.10;99.90;;;;;;5074515;28;20064;-79
2023/03/13 11:04:54;;;;;;;5.32;1.20;;;14.10;99.90;;;;;;5074562;28;20056;-78
2023/03/13 11:07:31;;;;;;;3.15;0.60;;;15.50;99.90;;;;;;5074572;28;20047;-78
2023/03/13 11:10:21;;;;;;;1.92;0.82;;;14.20;99.90;;;;;;5074571;28;20442;-78
2023/03/13 11:12:52;;;;;;;11.65;1.02;;;14.30;99.90;;;;;;5074864;28;20047;-77
2023/03/13 11:15:24;;;;;;;1.63;0.50;;;14.30;99.90;;;;;;5074544;28;20055;-79
2023/03/13 11:18:12;;;;;;;5.10;1.15;;;14.40;99.90;;;;;;5074780;28;20047;-78
2023/03/13 11:20:44;;;;;;;2.78;1.15;;;14.40;99.90;;;;;;5074803;28;20487;-78
2023/03/13 11:23:16;;;;;;;4.28;1.30;;;14.50;67.90;;;;;;5074698;28;20511;-77
2023/03/13 11:26:19;;;;;;;6.15;0.93;;;14.40;35.90;;;;;;5074351;28;20044;-78
2023/03/13 11:29:01;;;;;;;9.25;1.05;;;14.40;34.80;;;;;;5074645;28;20052;-78
2023/03/13 11:31:29;;;;;;;3.08;0.80;;;14.40;41.80;;;;;;5057645;28;20051;-78
2023/03/13 11:34:35;;;;;;;2.78;1.00;;;14.60;38.60;;;;;;5057970;28;20048;-78
2023/03/13 11:37:08;;;;;;;5.65;1.38;;;14.40;39.00;;;;;;5078279;28;20131;-77
2023/03/13 11:40:08;;;;;;;3.65;0.77;;;14.40;45.70;;;;;;5078433;28;20039;-78
2023/03/13 11:42:40;;;;;;;2.67;1.13;;;14.60;33.70;;;;;;5078097;28;20040;-77
2023/03/13 11:45:42;;;;;;;2.25;0.57;;;14.60;25.00;;;;;;5078130;28;20036;-78
2023/03/13 11:48:31;;;;;;;3.30;1.23;;;14.70;15.90;;;;;;5077994;28;20040;-77
2023/03/13 11:51:16;;;;;;;1.02;0.68;;;14.80;22.50;;;;;;5078013;28;20035;-77
2023/03/13 11:54:19;;;;;;;3.00;1.50;;;14.90;6.60;;;;;;5078297;28;20047;-73
2023/03/13 11:56:53;;;;;;;2.85;0.60;;;14.90;1.00;;;;;;5061053;28;20042;-73
2023/03/13 11:59:58;;;;;;;1.30;0.50;;;16.20;1.00;;;;;;5077717;28;20457;-73
2023/03/13 12:02:31;;;;;;;1.33;0.70;;;14.90;1.00;;;;;;5060789;28;20412;-73
2023/03/13 12:05:06;;;;;;;1.30;0.47;;;14.90;1.00;;;;;;5077639;28;20135;-73
2023/03/13 12:07:34;;;;;;;0.73;0.60;;;14.90;1.00;;;;;;5077569;28;20127;-73
2023/03/13 12:10:04;;;;;;;1.17;0.43;;;14.90;1.00;;;;;;5077528;28;20043;-73
2023/03/13 12:12:53;;;;;;;0.85;0.40;;;15.40;1.00;;;;;;5077758;28;20032;-73
2023/03/13 12:15:33;;;;;;;4.45;0.80;;;15.00;1.00;;;;;;5077774;28;20127;-72
2023/03/13 12:18:04;;;;;;;1.80;0.50;;;15.30;1.00;;;;;;5060732;28;20046;-73
2023/03/13 12:20:49;;;;;;;2.25;0.70;;;15.40;1.00;;;;;;5077644;28;20514;-73
2023/03/13 12:23:19;;;;;;;1.55;0.68;;;;;;;;;;5077340;28;20126;-73
2023/03/13 12:25:52;;;;;;;2.17;0.98;;;;;;;;;;5077264;28;20043;-73
2023/03/13 12:28:31;;;;;;;1.70;0.60;;;;;;;;;;5060768;28;20043;-73
2023/03/13 12:31:07;;;;;;;2.70;0.77;;;;;;;;;;5077220;28;20048;-73
2023/03/13 12:33:42;;;;;;;0.70;0.50;;;;;;;;;;5077243;28;20395;-73
2023/03/13 12:36:19;;;;;;;2.03;0.60;;;;;;;;;;5077032;28;20036;-73
2023/03/13 12:38:53;;;;;;;2.50;0.98;;;;;;;;;;5077006;28;20032;-73
2023/03/13 12:41:23;;;;;;;1.20;0.88;;;;;;;;;;5076886;28;20042;-73
2023/03/13 12:43:50;;;;;;;2.13;0.68;;;;;;;;;;5076838;28;20048;-73
2023/03/13 12:46:26;;;;;;;4.95;0.85;;;;;;;;;;5076435;28;20040;-73
2023/03/13 12:49:11;;;;;;;1.27;0.75;;;;;;;;;;5076765;28;20047;-73
2023/03/13 12:51:56;;;;;;;1.33;0.65;;;16.30;99.90;;;;;;5076783;28;20038;-73
2023/03/13 12:54:51;;;;;;;2.15;0.60;;;16.60;94.60;;;;;;5076966;28;20044;-73
2023/03/13 12:57:41;;;;;;;1.00;0.32;;;16.40;99.90;;;;;;5076566;28;20048;-73
2023/03/13 13:00:25;;;;;;;1.15;0.90;;;16.10;99.90;;;;;;5059882;28;20092;-73
2023/03/13 13:03:17;;;;;;;4.50;1.15;;;15.70;1.00;;;;;;5059851;28;20051;-74
2023/03/13 13:06:10;;;;;;;1.95;0.63;;;15.50;1.00;;;;;;5076384;28;20047;-73
2023/03/13 13:08:53;;;;;;;2.53;0.50;;;15.40;99.90;;;;;;5076422;28;20065;-73
2023/03/13 13:11:37;;;;;;;2.15;1.00;;;15.40;3.20;;;;;;5076348;28;20105;-74